Time;durP1;ratioP1;P1;durP2;ratioP2;P2;SDS_P1;SDS_P2;PMS_P1;PMS_P2;Temp;Humidity;BMP_temperature;BMP_pressure;BME280_temperature;BME280_humidity;BME280_pressure;Samples;Min_cycle;Max_cycle;Signal;HPM_P1;HPM_P2
2021/04/09 00:01:54;;;;;;;18.40;13.73;;;4.70;78.10;;;;;;5072290;28;20041;-76
2021/04/09 00:04:20;;;;;;;15.50;13.88;;;4.70;78.40;;;;;;5072228;28;20121;-76
2021/04/09 00:06:46;;;;;;;19.33;14.43;;;4.60;78.50;;;;;;5074394;28;20542;-76
2021/04/09 00:09:12;;;;;;;18.55;13.48;;;4.60;78.70;;;;;;5068667;28;20124;-76
2021/04/09 00:11:40;;;;;;;18.23;14.75;;;4.60;79.10;;;;;;5072352;28;20036;-76
2021/04/09 00:14:07;;;;;;;19.17;14.43;;;4.50;79.20;;;;;;5070953;28;20094;-76
2021/04/09 00:16:33;;;;;;;19.52;15.20;;;4.60;79.60;;;;;;5077404;28;20431;-76
2021/04/09 00:19:00;;;;;;;17.15;13.50;;;4.60;79.90;;;;;;5073988;28;20056;-76
2021/04/09 00:21:27;;;;;;;18.33;14.80;;;4.50;80.30;;;;;;5070819;28;20453;-76
2021/04/09 00:23:53;;;;;;;20.02;15.10;;;4.40;80.40;;;;;;5081006;28;20040;-76
2021/04/09 00:26:19;;;;;;;19.50;14.98;;;4.40;80.60;;;;;;5068085;28;20032;-76
2021/04/09 00:28:45;;;;;;;17.45;13.30;;;4.40;80.80;;;;;;5070057;28;20044;-75
2021/04/09 00:31:11;;;;;;;18.25;13.52;;;4.30;80.80;;;;;;5069382;28;20403;-75
2021/04/09 00:33:36;;;;;;;22.95;14.05;;;4.40;81.00;;;;;;5075912;28;20040;-75
2021/04/09 00:36:02;;;;;;;16.95;14.20;;;4.30;81.10;;;;;;5072910;28;20040;-75
2021/04/09 00:38:28;;;;;;;17.42;13.63;;;4.30;81.10;;;;;;5076018;28;20033;-75
2021/04/09 00:40:54;;;;;;;17.77;12.52;;;4.30;81.40;;;;;;5070391;28;20074;-75
2021/04/09 00:43:20;;;;;;;17.83;13.80;;;4.30;81.10;;;;;;5070966;28;20105;-75
2021/04/09 00:45:46;;;;;;;17.98;14.27;;;4.30;81.30;;;;;;5068043;28;20028;-75
2021/04/09 00:48:12;;;;;;;18.63;14.10;;;4.30;81.60;;;;;;5075540;28;20144;-75
2021/04/09 00:50:38;;;;;;;17.52;14.45;;;4.30;81.60;;;;;;5076158;28;20478;-75
2021/04/09 00:53:11;;;;;;;20.88;15.05;;;4.20;81.80;;;;;;5081520;28;20044;-75
2021/04/09 00:55:40;;;;;;;16.63;13.70;;;4.30;82.30;;;;;;5065905;28;20033;-75
2021/04/09 00:58:06;;;;;;;19.88;14.25;;;4.20;82.30;;;;;;5076262;28;20114;-75
2021/04/09 01:00:32;;;;;;;21.70;14.07;;;4.20;82.30;;;;;;5079439;28;20064;-75
2021/04/09 01:02:59;;;;;;;17.42;13.65;;;4.20;82.50;;;;;;5060336;28;20066;-75
2021/04/09 01:05:25;;;;;;;19.40;13.73;;;4.10;82.40;;;;;;5077579;28;20192;-75
2021/04/09 01:07:51;;;;;;;18.45;13.77;;;4.10;82.40;;;;;;5076329;28;20488;-75
2021/04/09 01:10:19;;;;;;;16.95;13.98;;;4.20;82.60;;;;;;5075046;28;20035;-75
2021/04/09 01:12:46;;;;;;;21.60;13.75;;;4.20;82.70;;;;;;5068892;28;20032;-76
2021/04/09 01:15:13;;;;;;;18.00;13.68;;;4.20;82.80;;;;;;5072581;28;20142;-76
2021/04/09 01:17:52;;;;;;;18.38;14.23;;;4.20;82.60;;;;;;5070154;28;20060;-75
2021/04/09 01:20:38;;;;;;;18.77;14.15;;;4.20;82.40;;;;;;5073658;28;20054;-75
2021/04/09 01:23:24;;;;;;;19.60;13.88;;;4.20;82.80;;;;;;5076055;28;20052;-75
2021/04/09 01:26:24;;;;;;;19.40;13.38;;;4.20;82.80;;;;;;5077147;28;20044;-75
2021/04/09 01:29:34;;;;;;;19.92;14.38;;;4.20;82.40;;;;;;5069744;28;20043;-76
2021/04/09 01:32:06;;;;;;;18.15;13.80;;;4.30;82.60;;;;;;5072767;28;20044;-76
2021/04/09 01:35:06;;;;;;;19.52;14.15;;;4.30;82.70;;;;;;5071844;28;20040;-76
2021/04/09 01:37:40;;;;;;;17.77;13.43;;;4.30;81.90;;;;;;5065331;28;20079;-76
2021/04/09 01:40:14;;;;;;;19.95;13.32;;;4.30;82.10;;;;;;5080732;28;20038;-76
2021/04/09 01:42:42;;;;;;;20.10;13.93;;;4.30;82.60;;;;;;5075759;28;20032;-76
2021/04/09 01:45:12;;;;;;;18.63;14.10;;;4.40;82.60;;;;;;5086259;28;20553;-76
2021/04/09 01:47:41;;;;;;;20.08;14.02;;;4.40;83.00;;;;;;5073969;28;20032;-76
2021/04/09 01:50:13;;;;;;;18.58;14.32;;;4.40;82.80;;;;;;5078542;28;20041;-76
2021/04/09 01:52:50;;;;;;;18.33;14.27;;;4.30;83.00;;;;;;5079426;28;20475;-74
2021/04/09 01:55:18;;;;;;;19.40;14.18;;;4.30;83.00;;;;;;5076461;28;20056;-75
2021/04/09 01:57:47;;;;;;;16.85;14.68;;;4.30;83.40;;;;;;5077960;28;20452;-75
2021/04/09 02:00:19;;;;;;;19.88;14.15;;;4.30;83.50;;;;;;5088824;28;20044;-76
2021/04/09 02:02:47;;;;;;;20.98;15.02;;;4.40;84.30;;;;;;5079631;28;20032;-76
2021/04/09 02:05:18;;;;;;;19.10;14.57;;;4.40;83.60;;;;;;5070142;28;20090;-75
2021/04/09 02:07:45;;;;;;;20.40;14.85;;;4.40;83.50;;;;;;5077095;28;20040;-75
2021/04/09 02:10:15;;;;;;;19.77;14.15;;;4.40;83.70;;;;;;5068445;28;20052;-75
2021/04/09 02:12:43;;;;;;;19.58;14.73;;;4.50;83.50;;;;;;5077461;28;20039;-75
2021/04/09 02:15:11;;;;;;;22.02;14.55;;;4.50;84.00;;;;;;5070242;28;20448;-76
2021/04/09 02:17:38;;;;;;;17.70;14.13;;;4.50;83.70;;;;;;5077593;28;20076;-76
2021/04/09 02:20:12;;;;;;;19.42;14.48;;;4.50;83.80;;;;;;5078495;28;20032;-76
2021/04/09 02:22:39;;;;;;;18.17;13.63;;;4.60;83.60;;;;;;5082490;28;20040;-76
2021/04/09 02:25:11;;;;;;;20.73;15.05;;;4.70;83.60;;;;;;5071119;28;20479;-76
2021/04/09 02:27:40;;;;;;;16.95;13.85;;;4.70;83.90;;;;;;5073946;28;20102;-76
2021/04/09 02:30:08;;;;;;;17.35;13.80;;;4.70;83.70;;;;;;5068861;28;20668;-76
2021/04/09 02:32:33;;;;;;;18.55;13.60;;;4.80;83.50;;;;;;5075184;28;20044;-76
2021/04/09 02:34:59;;;;;;;22.90;14.13;;;4.90;82.80;;;;;;5070362;28;20085;-76
2021/04/09 02:37:26;;;;;;;18.30;13.65;;;5.00;82.20;;;;;;5073359;28;20037;-76
2021/04/09 02:40:04;;;;;;;17.35;12.95;;;5.10;81.90;;;;;;5070926;28;20036;-76
2021/04/09 02:42:30;;;;;;;17.80;12.90;;;5.10;81.00;;;;;;5072716;28;20096;-75
2021/04/09 02:44:56;;;;;;;18.13;13.15;;;5.20;81.00;;;;;;5070571;28;20135;-74
2021/04/09 02:47:25;;;;;;;17.30;13.15;;;5.30;80.70;;;;;;5076665;28;20041;-74
2021/04/09 02:50:03;;;;;;;19.25;13.63;;;5.40;80.90;;;;;;5080867;28;20046;-74
2021/04/09 02:52:32;;;;;;;19.02;13.40;;;5.30;80.50;;;;;;5080696;28;20049;-74
2021/04/09 02:55:02;;;;;;;19.15;13.80;;;5.40;80.60;;;;;;5074352;28;20032;-75
2021/04/09 02:57:29;;;;;;;20.40;12.57;;;5.40;81.10;;;;;;5072541;28;20042;-74
2021/04/09 02:59:59;;;;;;;17.63;12.60;;;5.40;80.60;;;;;;5073863;28;20041;-75
2021/04/09 03:02:26;;;;;;;17.15;13.25;;;5.50;80.50;;;;;;5071049;28;20054;-75
2021/04/09 03:04:54;;;;;;;16.90;13.13;;;5.40;80.90;;;;;;5074645;28;20495;-75
2021/04/09 03:07:20;;;;;;;15.18;12.52;;;5.40;80.80;;;;;;5069589;28;20464;-75
2021/04/09 03:09:46;;;;;;;17.30;13.23;;;5.40;81.20;;;;;;5077254;28;20112;-75
2021/04/09 03:12:14;;;;;;;17.15;13.20;;;5.40;81.30;;;;;;5067708;28;20524;-75
2021/04/09 03:14:41;;;;;;;18.45;13.18;;;5.40;81.20;;;;;;5077749;28;20086;-75
2021/04/09 03:17:12;;;;;;;17.23;13.07;;;5.30;81.50;;;;;;5074622;28;20044;-75
2021/04/09 03:19:38;;;;;;;17.67;13.68;;;5.40;81.30;;;;;;5083842;28;20459;-75
2021/04/09 03:22:11;;;;;;;16.77;12.73;;;5.40;81.80;;;;;;5063636;28;20048;-75
2021/04/09 03:24:37;;;;;;;17.23;12.95;;;5.40;81.20;;;;;;5076482;28;20051;-75
2021/04/09 03:27:04;;;;;;;16.55;12.93;;;5.40;81.40;;;;;;5071176;28;20040;-75
2021/04/09 03:29:30;;;;;;;15.25;13.38;;;5.40;81.10;;;;;;5072745;28;20128;-76
2021/04/09 03:31:56;;;;;;;16.65;13.45;;;5.50;81.10;;;;;;5071866;28;20032;-75
2021/04/09 03:34:22;;;;;;;16.20;13.88;;;5.40;81.30;;;;;;5073520;28;20033;-76
2021/04/09 03:36:48;;;;;;;17.55;13.25;;;5.50;81.40;;;;;;5073154;28;20044;-76
2021/04/09 03:39:14;;;;;;;19.00;12.88;;;5.50;80.80;;;;;;5096640;28;20036;-76
2021/04/09 03:41:39;;;;;;;18.15;14.38;;;5.50;81.10;;;;;;5072773;28;20055;-75
2021/04/09 03:44:05;;;;;;;16.38;12.88;;;5.50;81.40;;;;;;5072203;28;20040;-75
2021/04/09 03:46:31;;;;;;;15.48;12.80;;;5.50;80.60;;;;;;5074277;28;20049;-75
2021/04/09 03:48:57;;;;;;;20.27;12.95;;;5.60;81.20;;;;;;5065672;28;20107;-76
2021/04/09 03:51:23;;;;;;;18.15;12.15;;;5.40;81.00;;;;;;5077224;28;20175;-76
2021/04/09 03:53:49;;;;;;;16.98;13.50;;;5.60;81.10;;;;;;5069805;28;20044;-76
2021/04/09 03:56:15;;;;;;;15.68;13.18;;;5.60;81.30;;;;;;5063494;28;20462;-76
2021/04/09 03:58:44;;;;;;;15.32;12.48;;;5.60;81.60;;;;;;5088033;28;20039;-76
2021/04/09 04:01:10;;;;;;;17.55;13.27;;;5.70;81.90;;;;;;5077248;28;20056;-76
2021/04/09 04:03:35;;;;;;;17.55;13.35;;;5.50;81.70;;;;;;5068553;28;20036;-76
2021/04/09 04:06:01;;;;;;;17.52;13.20;;;5.60;82.00;;;;;;5081485;28;20051;-76
2021/04/09 04:08:28;;;;;;;16.40;12.35;;;5.60;82.00;;;;;;5074890;28;20451;-75
2021/04/09 04:10:54;;;;;;;15.00;12.73;;;5.60;82.10;;;;;;5081206;28;20060;-75
2021/04/09 04:13:21;;;;;;;21.98;13.15;;;5.50;82.20;;;;;;5069933;28;20138;-75
2021/04/09 04:15:47;;;;;;;18.38;12.77;;;5.50;82.20;;;;;;5072635;28;20131;-76
2021/04/09 04:18:13;;;;;;;18.05;12.52;;;5.50;82.30;;;;;;5053945;28;20146;-76
2021/04/09 04:20:39;;;;;;;18.08;13.15;;;5.50;82.40;;;;;;5070461;28;20060;-76
2021/04/09 04:23:05;;;;;;;15.98;13.73;;;5.50;82.50;;;;;;5072414;28;20067;-76
2021/04/09 04:25:33;;;;;;;16.27;12.80;;;5.50;82.90;;;;;;5068855;28;20071;-75
2021/04/09 04:28:02;;;;;;;16.63;13.23;;;5.60;82.80;;;;;;5071177;28;20106;-75
2021/04/09 04:30:50;;;;;;;18.60;13.00;;;5.50;83.20;;;;;;5052926;28;20125;-76
2021/04/09 04:33:20;;;;;;;17.45;13.20;;;5.60;83.30;;;;;;5073616;28;20134;-76
2021/04/09 04:35:47;;;;;;;18.42;13.35;;;5.50;83.20;;;;;;5068694;28;20083;-76
2021/04/09 04:38:14;;;;;;;19.00;13.75;;;5.50;83.20;;;;;;5079200;28;20043;-76
2021/04/09 04:40:39;;;;;;;20.50;14.32;;;5.50;83.30;;;;;;5069531;28;20156;-75
2021/04/09 04:43:08;;;;;;;19.27;13.35;;;5.50;83.40;;;;;;5073613;28;20090;-75
2021/04/09 04:45:34;;;;;;;16.80;13.43;;;5.60;83.40;;;;;;5072046;28;20028;-75
2021/04/09 04:48:00;;;;;;;18.95;13.68;;;5.50;83.70;;;;;;5075009;28;20044;-75
2021/04/09 04:50:25;;;;;;;19.77;13.65;;;5.50;83.70;;;;;;5069541;28;20116;-75
2021/04/09 04:52:51;;;;;;;18.40;14.48;;;5.40;84.00;;;;;;5073784;28;20476;-75
2021/04/09 04:55:18;;;;;;;18.88;14.52;;;5.40;84.30;;;;;;5067010;28;20365;-75
2021/04/09 04:57:43;;;;;;;20.48;13.48;;;5.30;84.60;;;;;;5072392;28;20045;-75
2021/04/09 05:00:10;;;;;;;17.02;13.98;;;5.30;84.70;;;;;;5069935;28;20070;-75
2021/04/09 05:02:35;;;;;;;18.15;13.27;;;5.20;85.10;;;;;;5076765;28;20040;-75
2021/04/09 05:05:05;;;;;;;24.98;17.67;;;5.10;85.10;;;;;;5073649;28;20067;-75
2021/04/09 05:07:31;;;;;;;19.13;14.38;;;5.10;85.40;;;;;;5070230;28;20563;-75
2021/04/09 05:09:57;;;;;;;17.25;14.00;;;5.10;85.80;;;;;;5080441;28;20056;-77
2021/04/09 05:12:23;;;;;;;21.02;13.80;;;5.00;85.80;;;;;;5076479;28;20101;-77
2021/04/09 05:14:53;;;;;;;17.40;14.75;;;5.00;86.00;;;;;;5082618;28;20044;-77
2021/04/09 05:17:19;;;;;;;15.93;14.07;;;5.00;86.40;;;;;;5070348;28;20040;-77
2021/04/09 05:19:45;;;;;;;21.73;15.52;;;4.90;86.70;;;;;;5077368;28;20055;-77
2021/04/09 05:22:12;;;;;;;21.85;16.35;;;4.90;87.00;;;;;;5072922;28;20044;-77
2021/04/09 05:24:38;;;;;;;21.55;14.95;;;4.90;87.30;;;;;;5077595;28;20036;-77
2021/04/09 05:27:05;;;;;;;18.73;14.32;;;4.80;87.60;;;;;;5073724;28;20152;-77
2021/04/09 05:29:31;;;;;;;18.33;14.63;;;4.80;87.80;;;;;;5079903;28;20109;-77
2021/04/09 05:31:57;;;;;;;23.10;15.35;;;4.80;88.00;;;;;;5071842;28;20043;-78
2021/04/09 05:34:24;;;;;;;21.08;15.63;;;4.80;87.90;;;;;;5059207;28;20127;-78
2021/04/09 05:36:50;;;;;;;21.08;16.08;;;4.90;88.00;;;;;;5078293;28;20040;-79
2021/04/09 05:39:15;;;;;;;22.40;16.25;;;4.90;88.20;;;;;;5071753;28;20040;-79
2021/04/09 05:41:41;;;;;;;18.83;14.80;;;4.90;88.20;;;;;;5067917;28;20097;-78
2021/04/09 05:44:07;;;;;;;21.02;14.98;;;5.00;88.10;;;;;;5071431;28;20456;-77
2021/04/09 05:46:33;;;;;;;19.27;15.77;;;5.00;88.00;;;;;;5070567;28;20565;-77
2021/04/09 05:48:59;;;;;;;20.67;15.55;;;5.10;88.00;;;;;;5068071;28;20074;-77
2021/04/09 05:51:25;;;;;;;20.35;15.90;;;5.20;87.80;;;;;;5057908;28;20048;-77
2021/04/09 05:53:52;;;;;;;20.80;15.02;;;5.30;87.50;;;;;;5068630;28;20103;-77
2021/04/09 05:56:18;;;;;;;22.10;16.83;;;5.40;87.50;;;;;;5071835;28;20519;-77
2021/04/09 05:58:44;;;;;;;19.75;14.27;;;5.50;87.30;;;;;;5071080;28;20142;-77
2021/04/09 06:01:10;;;;;;;19.50;15.18;;;5.60;87.50;;;;;;5067842;28;20056;-78
2021/04/09 06:03:36;;;;;;;22.73;15.05;;;5.70;86.80;;;;;;5069246;28;20058;-78
2021/04/09 06:06:02;;;;;;;18.00;13.48;;;5.90;86.70;;;;;;5070809;28;20033;-78
2021/04/09 06:08:27;;;;;;;16.42;14.18;;;6.10;86.40;;;;;;5064976;28;20055;-77
2021/04/09 06:10:53;;;;;;;22.02;14.63;;;6.30;86.30;;;;;;5077490;28;20452;-77
2021/04/09 06:13:19;;;;;;;15.75;14.02;;;6.50;86.10;;;;;;5054946;28;20047;-77
2021/04/09 06:15:47;;;;;;;20.02;14.88;;;6.60;84.70;;;;;;5087568;28;20048;-77
2021/04/09 06:18:13;;;;;;;20.65;16.67;;;6.80;84.90;;;;;;5070806;28;20060;-77
2021/04/09 06:20:39;;;;;;;18.35;14.35;;;6.90;84.70;;;;;;5068281;28;20075;-77
2021/04/09 06:23:06;;;;;;;17.85;13.13;;;7.00;84.10;;;;;;5075283;28;20029;-77
2021/04/09 06:25:32;;;;;;;15.90;13.57;;;7.10;83.50;;;;;;5074847;28;20145;-76
2021/04/09 06:27:58;;;;;;;16.00;13.77;;;7.20;82.60;;;;;;5085030;28;20104;-77
2021/04/09 06:30:24;;;;;;;17.58;13.63;;;7.30;82.90;;;;;;5073263;28;20118;-77
2021/04/09 06:32:49;;;;;;;17.67;14.15;;;7.40;82.70;;;;;;5074124;28;20086;-76
2021/04/09 06:35:16;;;;;;;21.08;13.13;;;7.50;82.50;;;;;;5075920;28;20400;-77
2021/04/09 06:37:42;;;;;;;19.58;13.90;;;7.60;82.40;;;;;;5080103;28;20040;-76
2021/04/09 06:40:13;;;;;;;16.15;12.80;;;7.70;82.80;;;;;;5058593;28;20051;-76
2021/04/09 06:42:39;;;;;;;27.50;14.32;;;7.80;82.30;;;;;;5079801;28;20048;-78
2021/04/09 06:45:05;;;;;;;18.17;12.82;;;7.80;82.30;;;;;;5073388;28;20040;-78
2021/04/09 06:47:32;;;;;;;18.70;12.70;;;7.80;81.80;;;;;;5085808;28;20135;-78
2021/04/09 06:49:59;;;;;;;16.77;13.10;;;7.70;82.50;;;;;;5069571;28;20037;-78
2021/04/09 06:52:27;;;;;;;16.80;13.55;;;7.80;83.00;;;;;;5078363;28;20071;-78
2021/04/09 06:54:53;;;;;;;18.20;13.50;;;7.80;83.60;;;;;;5075329;28;20840;-78
2021/04/09 06:57:21;;;;;;;18.75;12.45;;;7.80;83.20;;;;;;5077521;28;20123;-77
2021/04/09 06:59:48;;;;;;;15.40;12.32;;;7.80;82.40;;;;;;5072312;28;20072;-77
2021/04/09 07:02:16;;;;;;;21.58;13.15;;;7.90;83.10;;;;;;5080449;28;20056;-78
2021/04/09 07:04:44;;;;;;;16.35;12.10;;;8.10;83.00;;;;;;5076347;28;20132;-78
2021/04/09 07:07:11;;;;;;;19.50;13.43;;;8.20;82.10;;;;;;5073599;28;20041;-79
2021/04/09 07:09:37;;;;;;;14.98;13.20;;;8.30;81.80;;;;;;5080089;28;20511;-79
2021/04/09 07:12:04;;;;;;;17.63;12.23;;;8.30;82.20;;;;;;5066214;28;20055;-78
2021/04/09 07:14:51;;;;;;;16.85;12.00;;;8.40;81.90;;;;;;5075724;28;20547;-78
2021/04/09 07:17:38;;;;;;;16.05;12.77;;;8.50;81.30;;;;;;5071803;28;20119;-76
2021/04/09 07:20:18;;;;;;;18.38;12.48;;;8.60;81.40;;;;;;5077861;28;20379;-75
2021/04/09 07:22:48;;;;;;;18.00;12.60;;;8.60;81.70;;;;;;5078588;28;20040;-74
2021/04/09 07:25:19;;;;;;;14.77;11.70;;;8.50;82.30;;;;;;5077096;28;20041;-75
2021/04/09 07:27:47;;;;;;;16.25;11.98;;;8.50;81.80;;;;;;5071726;28;20089;-74
2021/04/09 07:30:31;;;;;;;17.42;12.32;;;8.60;82.90;;;;;;5078393;28;20044;-76
2021/04/09 07:33:04;;;;;;;18.27;12.30;;;8.80;80.70;;;;;;5078444;28;20127;-78
2021/04/09 07:35:42;;;;;;;19.45;12.05;;;8.90;81.90;;;;;;5080544;28;20135;-77
2021/04/09 07:38:07;;;;;;;17.27;12.00;;;9.20;81.50;;;;;;5071970;28;20118;-76
2021/04/09 07:40:34;;;;;;;16.80;10.93;;;9.20;81.00;;;;;;5075969;28;20154;-76
2021/04/09 07:43:01;;;;;;;13.88;10.95;;;9.30;80.40;;;;;;5068814;28;20029;-77
2021/04/09 07:45:31;;;;;;;15.50;11.25;;;9.40;81.10;;;;;;5080838;28;20080;-77
2021/04/09 07:48:05;;;;;;;15.75;11.52;;;9.70;81.10;;;;;;5074942;28;20036;-76
2021/04/09 07:50:33;;;;;;;13.85;11.27;;;9.80;79.50;;;;;;5075051;28;20051;-76
2021/04/09 07:52:59;;;;;;;16.00;10.95;;;9.80;80.60;;;;;;5080515;28;20097;-76
2021/04/09 07:55:29;;;;;;;18.67;11.23;;;9.80;79.90;;;;;;5080404;28;20113;-76
2021/04/09 07:58:11;;;;;;;21.15;10.80;;;9.80;80.20;;;;;;5077417;28;20052;-73
2021/04/09 08:00:37;;;;;;;15.52;11.32;;;9.90;79.40;;;;;;5075047;28;20075;-76
2021/04/09 08:03:03;;;;;;;18.67;11.90;;;10.00;81.90;;;;;;5071130;28;20068;-76
2021/04/09 08:05:29;;;;;;;14.32;10.73;;;10.10;81.00;;;;;;5082581;28;20063;-73
2021/04/09 08:07:55;;;;;;;14.40;9.88;;;10.20;80.80;;;;;;5070218;28;20114;-75
2021/04/09 08:10:32;;;;;;;15.07;10.35;;;10.20;80.20;;;;;;5077565;28;20071;-76
2021/04/09 08:12:59;;;;;;;14.05;10.65;;;10.30;80.00;;;;;;5076928;28;20033;-75
2021/04/09 08:15:32;;;;;;;14.48;10.05;;;10.30;81.10;;;;;;5077397;28;20115;-77
2021/04/09 08:18:11;;;;;;;24.75;16.83;;;10.20;79.80;;;;;;5072611;28;20441;-77
2021/04/09 08:20:48;;;;;;;15.80;10.70;;;10.30;80.90;;;;;;5081385;28;20055;-77
2021/04/09 08:23:15;;;;;;;16.10;10.43;;;10.20;80.20;;;;;;5074459;28;20091;-77
2021/04/09 08:25:42;;;;;;;19.17;10.30;;;10.20;81.40;;;;;;5068994;28;20056;-77
2021/04/09 08:28:10;;;;;;;16.17;10.70;;;10.30;81.70;;;;;;5067464;28;20056;-77
2021/04/09 08:30:38;;;;;;;18.95;13.48;;;10.20;81.50;;;;;;5075571;28;20040;-76
2021/04/09 08:33:06;;;;;;;17.15;10.23;;;10.30;80.70;;;;;;5076756;28;20034;-77
2021/04/09 08:35:33;;;;;;;14.02;10.82;;;10.40;80.40;;;;;;5075508;28;20040;-77
2021/04/09 08:37:59;;;;;;;12.40;9.88;;;10.50;80.70;;;;;;5076297;28;20052;-77
2021/04/09 08:40:26;;;;;;;14.70;9.15;;;10.60;80.30;;;;;;5071931;28;20041;-76
2021/04/09 08:42:52;;;;;;;15.43;10.18;;;10.70;80.20;;;;;;5080308;28;20059;-77
2021/04/09 08:45:21;;;;;;;16.30;9.85;;;10.90;79.00;;;;;;5069138;28;20083;-77
2021/04/09 08:47:53;;;;;;;15.30;10.60;;;10.90;78.80;;;;;;5083154;28;20619;-77
2021/04/09 08:50:19;;;;;;;17.30;9.98;;;10.80;79.80;;;;;;5066455;28;20124;-77
2021/04/09 08:52:47;;;;;;;14.48;9.57;;;10.90;80.80;;;;;;5073916;28;20059;-77
2021/04/09 08:55:14;;;;;;;12.48;9.25;;;10.90;80.60;;;;;;5067891;28;20036;-78
2021/04/09 08:57:45;;;;;;;13.88;9.60;;;10.80;80.00;;;;;;5073162;28;20045;-77
2021/04/09 09:00:14;;;;;;;11.32;8.25;;;10.70;80.10;;;;;;5076248;28;20059;-77
2021/04/09 09:02:47;;;;;;;14.77;8.63;;;10.70;79.50;;;;;;5084275;28;20052;-78
2021/04/09 09:05:30;;;;;;;15.38;8.40;;;10.60;80.50;;;;;;5072140;28;20463;-77
2021/04/09 09:08:05;;;;;;;13.80;7.88;;;10.50;80.00;;;;;;5078955;28;20618;-77
2021/04/09 09:10:31;;;;;;;13.98;7.53;;;10.50;79.90;;;;;;5077707;28;20113;-76
2021/04/09 09:13:08;;;;;;;14.18;7.40;;;10.40;81.40;;;;;;5074718;28;20028;-76
2021/04/09 09:15:46;;;;;;;13.30;7.53;;;10.30;80.50;;;;;;5070026;28;20040;-76
2021/04/09 09:18:24;;;;;;;12.77;7.53;;;10.20;81.10;;;;;;5075040;28;20408;-77
2021/04/09 09:21:05;;;;;;;12.98;7.35;;;10.00;81.70;;;;;;5070481;28;20111;-77
2021/04/09 09:23:44;;;;;;;14.43;6.90;;;10.00;82.00;;;;;;5073339;28;20093;-77
2021/04/09 09:26:41;;;;;;;11.70;5.90;;;9.90;82.30;;;;;;5071227;28;20032;-77
2021/04/09 09:29:24;;;;;;;10.90;5.30;;;9.80;81.10;;;;;;5071956;28;20056;-77
2021/04/09 09:32:06;;;;;;;11.38;5.53;;;9.80;82.00;;;;;;5071043;28;20052;-76
2021/04/09 09:34:39;;;;;;;9.07;4.68;;;9.90;83.40;;;;;;5077683;28;20052;-76
2021/04/09 09:37:19;;;;;;;12.07;5.50;;;10.00;83.50;;;;;;5068874;28;20459;-76
2021/04/09 09:40:05;;;;;;;11.38;6.07;;;10.10;83.50;;;;;;5073771;28;20496;-76
2021/04/09 09:42:34;;;;;;;14.70;5.55;;;10.20;82.30;;;;;;5071165;28;20029;-76
2021/04/09 09:45:05;;;;;;;17.67;12.38;;;10.20;83.60;;;;;;5073987;28;20070;-77
2021/04/09 09:47:37;;;;;;;9.38;4.80;;;10.20;82.70;;;;;;5069489;28;20396;-76
2021/04/09 09:50:12;;;;;;;10.52;5.05;;;10.20;82.30;;;;;;5076632;28;20093;-76
2021/04/09 09:52:48;;;;;;;12.77;4.90;;;10.10;82.90;;;;;;5074761;28;20417;-77
2021/04/09 09:55:28;;;;;;;15.63;5.60;;;10.10;82.60;;;;;;5075756;28;20476;-76
2021/04/09 09:58:02;;;;;;;8.82;4.57;;;10.10;81.60;;;;;;5068974;28;20137;-76
2021/04/09 10:00:34;;;;;;;11.43;5.55;;;10.00;83.40;;;;;;5077126;28;20079;-76
2021/04/09 10:03:22;;;;;;;10.15;4.70;;;9.90;82.70;;;;;;5091525;28;20090;-75
2021/04/09 10:06:02;;;;;;;14.13;6.00;;;9.90;82.20;;;;;;5079469;28;20078;-76
2021/04/09 10:08:36;;;;;;;12.60;6.10;;;9.80;83.30;;;;;;5073647;28;20411;-75
2021/04/09 10:11:15;;;;;;;14.52;5.68;;;9.70;83.70;;;;;;5075182;28;20472;-75
2021/04/09 10:13:43;;;;;;;14.48;6.03;;;9.70;84.10;;;;;;5073135;28;20414;-75
2021/04/09 10:16:13;;;;;;;10.95;5.18;;;9.70;85.00;;;;;;5080410;28;20020;-75
2021/04/09 10:18:53;;;;;;;9.30;5.45;;;9.80;84.40;;;;;;5068989;28;20052;-75
2021/04/09 10:21:28;;;;;;;10.15;5.60;;;9.80;84.20;;;;;;5081452;28;20567;-75
2021/04/09 10:24:04;;;;;;;;;;;9.80;85.20;;;;;;5079512;28;20484;-75
2021/04/09 10:26:30;;;;;;;15.35;6.78;;;9.80;85.60;;;;;;5076619;28;19950;-75
2021/04/09 10:28:57;;;;;;;10.88;5.53;;;9.80;87.60;;;;;;5074392;28;20127;-75
2021/04/09 10:31:25;;;;;;;13.10;6.47;;;9.90;88.50;;;;;;5077833;28;20041;-75
2021/04/09 10:33:56;;;;;;;9.00;5.30;;;10.20;87.60;;;;;;5070798;28;20139;-75
2021/04/09 10:36:22;;;;;;;13.18;5.40;;;10.30;86.00;;;;;;5080749;28;20059;-76
2021/04/09 10:38:54;;;;;;;9.02;5.10;;;10.50;86.10;;;;;;5072492;28;20471;-76
2021/04/09 10:41:29;;;;;;;11.30;6.22;;;10.60;85.80;;;;;;5073317;28;20090;-74
2021/04/09 10:43:57;;;;;;;10.40;5.00;;;10.80;85.50;;;;;;5082561;28;20147;-76
2021/04/09 10:46:25;;;;;;;10.98;5.00;;;10.90;83.50;;;;;;5074172;28;20064;-74
2021/04/09 10:48:57;;;;;;;9.88;4.25;;;10.90;82.30;;;;;;5074102;28;20080;-74
2021/04/09 10:51:28;;;;;;;10.00;3.45;;;10.90;82.70;;;;;;5077132;28;20458;-74
2021/04/09 10:53:54;;;;;;;11.93;4.38;;;10.80;81.60;;;;;;5066747;28;20059;-74
2021/04/09 10:56:20;;;;;;;18.90;12.18;;;10.80;82.40;;;;;;5085570;28;20051;-76
2021/04/09 10:58:47;;;;;;;10.48;4.53;;;11.00;82.40;;;;;;5080087;28;20392;-75
2021/04/09 11:01:14;;;;;;;13.10;6.57;;;11.00;82.10;;;;;;5070656;28;20512;-75
2021/04/09 11:03:40;;;;;;;11.75;3.38;;;11.20;80.90;;;;;;5077211;28;20174;-76
2021/04/09 11:06:06;;;;;;;11.68;3.58;;;11.30;79.90;;;;;;5070960;28;20436;-75
2021/04/09 11:08:34;;;;;;;9.27;3.25;;;11.30;79.90;;;;;;5075375;28;20062;-75
2021/04/09 11:11:14;;;;;;;8.27;3.63;;;11.30;78.60;;;;;;5072341;28;20040;-75
2021/04/09 11:13:42;;;;;;;11.60;3.67;;;11.30;78.50;;;;;;5082494;28;20058;-75
2021/04/09 11:16:11;;;;;;;9.35;3.90;;;11.40;79.20;;;;;;5069989;28;20089;-77
2021/04/09 11:18:51;;;;;;;8.13;3.28;;;11.40;78.80;;;;;;5073304;28;20470;-77
2021/04/09 11:21:42;;;;;;;9.75;3.63;;;11.70;78.50;;;;;;5067233;28;20094;-76
2021/04/09 11:24:11;;;;;;;9.85;3.50;;;11.90;75.30;;;;;;5077731;28;20049;-76
2021/04/09 11:26:38;;;;;;;11.15;3.20;;;11.90;78.00;;;;;;5074909;28;20384;-76
2021/04/09 11:29:05;;;;;;;9.65;3.25;;;11.80;77.10;;;;;;5079427;28;20148;-76
2021/04/09 11:31:31;;;;;;;7.32;2.53;;;11.70;76.70;;;;;;5069296;28;20040;-76
2021/04/09 11:34:08;;;;;;;6.97;2.50;;;11.60;76.20;;;;;;5075280;28;20036;-76
2021/04/09 11:36:39;;;;;;;9.35;3.05;;;11.40;74.90;;;;;;5065860;28;20055;-76
2021/04/09 11:39:11;;;;;;;10.48;3.85;;;11.20;76.20;;;;;;5075887;28;20043;-76
2021/04/09 11:41:38;;;;;;;6.40;3.05;;;11.10;76.40;;;;;;5072538;28;20461;-76
2021/04/09 11:44:28;;;;;;;11.32;3.20;;;11.00;77.80;;;;;;5080113;28;20040;-76
2021/04/09 11:47:11;;;;;;;16.13;7.13;;;10.90;77.70;;;;;;5067669;28;20123;-76
2021/04/09 11:49:37;;;;;;;7.93;2.85;;;10.80;79.20;;;;;;5077647;28;20558;-76
2021/04/09 11:52:06;;;;;;;9.35;4.38;;;10.80;79.60;;;;;;5067750;28;20045;-76
2021/04/09 11:54:34;;;;;;;6.97;2.65;;;10.80;79.40;;;;;;5083554;28;20158;-76
2021/04/09 11:57:00;;;;;;;8.35;2.88;;;10.70;79.30;;;;;;5074096;28;20048;-76
2021/04/09 11:59:26;;;;;;;9.98;3.00;;;10.80;79.80;;;;;;5073848;28;20040;-76
2021/04/09 12:01:53;;;;;;;10.30;3.10;;;10.90;80.20;;;;;;5068237;28;20153;-76
2021/04/09 12:04:40;;;;;;;7.53;2.42;;;11.00;80.40;;;;;;5075572;28;20032;-76
2021/04/09 12:07:23;;;;;;;10.30;2.70;;;11.20;79.70;;;;;;5072521;28;20048;-76
2021/04/09 12:09:51;;;;;;;8.27;3.22;;;11.30;79.20;;;;;;5075091;28;20064;-76
2021/04/09 12:12:17;;;;;;;9.07;2.65;;;11.40;79.60;;;;;;5080068;28;20033;-76
2021/04/09 12:14:54;;;;;;;10.75;3.13;;;11.60;78.80;;;;;;5078491;28;20053;-76
2021/04/09 12:17:23;;;;;;;8.38;4.07;;;11.80;78.50;;;;;;5067637;28;20127;-77
2021/04/09 12:19:51;;;;;;;41.22;28.65;;;11.90;78.80;;;;;;5076350;28;20044;-76
2021/04/09 12:22:17;;;;;;;7.75;2.75;;;12.00;77.50;;;;;;5077588;28;20056;-76
2021/04/09 12:24:44;;;;;;;8.63;2.53;;;12.10;75.90;;;;;;5070837;28;20515;-76
2021/04/09 12:27:10;;;;;;;5.55;2.70;;;12.20;75.20;;;;;;5069665;28;20038;-77
2021/04/09 12:29:37;;;;;;;7.13;2.35;;;12.30;74.70;;;;;;5072975;28;20041;-77
2021/04/09 12:32:04;;;;;;;8.65;2.78;;;12.50;74.20;;;;;;5069223;28;20769;-76
2021/04/09 12:34:30;;;;;;;9.30;2.72;;;12.50;72.30;;;;;;5066075;28;20436;-77
2021/04/09 12:36:56;;;;;;;7.25;2.92;;;12.50;72.20;;;;;;5076215;28;20040;-76
2021/04/09 12:39:26;;;;;;;7.00;2.55;;;12.30;72.20;;;;;;5069616;28;20264;-77
2021/04/09 12:41:53;;;;;;;5.57;2.45;;;12.10;71.40;;;;;;5074581;28;20059;-77
2021/04/09 12:44:20;;;;;;;5.55;3.05;;;11.80;73.00;;;;;;5066221;28;20025;-75
2021/04/09 12:46:49;;;;;;;6.57;2.80;;;11.60;73.90;;;;;;5076289;28;20139;-75
2021/04/09 12:49:17;;;;;;;7.45;3.35;;;11.50;74.70;;;;;;5068140;28;20508;-74
2021/04/09 12:51:43;;;;;;;6.93;3.28;;;11.40;75.30;;;;;;5069812;28;20071;-76